createdAt,value
2022-11-24T00:00:11.750Z,100484.78
2022-11-24T00:02:44.748Z,100489.94
2022-11-24T00:05:17.215Z,100385.38
2022-11-24T00:07:47.484Z,100490.31
2022-11-24T00:10:16.610Z,100497.16
2022-11-24T00:12:50.212Z,100425.22
2022-11-24T00:15:20.087Z,100459.81
2022-11-24T00:17:53.818Z,100492.47
2022-11-24T00:20:24.127Z,100454.03
2022-11-24T00:23:02.985Z,100425.22
2022-11-24T00:25:32.118Z,100491.03
2022-11-24T00:28:02.718Z,100473.97
2022-11-24T00:30:32.989Z,100491.97
2022-11-24T00:33:04.027Z,100518.38
2022-11-24T00:35:35.433Z,100533.66
2022-11-24T00:38:17.990Z,100320.22
2022-11-24T00:40:59.607Z,100534.25
2022-11-24T00:43:38.379Z,100540.13
2022-11-24T00:46:15.898Z,100543.41
2022-11-24T00:48:51.960Z,100534.25
2022-11-24T00:51:25.259Z,100549.16
2022-11-24T00:53:59.077Z,100551.19
2022-11-24T00:56:27.502Z,100534.75
2022-11-24T00:59:15.142Z,100553.63
2022-11-24T01:01:46.332Z,100557.81
2022-11-24T01:04:19.390Z,100512.16
2022-11-24T01:06:52.292Z,100541.59
2022-11-24T01:09:21.260Z,100543.28
2022-11-24T01:12:06.076Z,100544.50
2022-11-24T01:14:42.571Z,100549.63
2022-11-24T01:17:09.970Z,100539.56
2022-11-24T01:19:36.906Z,100533.81
2022-11-24T01:22:10.763Z,100542.22
2022-11-24T01:24:43.992Z,100561.19
2022-11-24T01:27:18.874Z,100295.81
2022-11-24T01:29:49.473Z,100570.31
2022-11-24T01:32:20.820Z,100572.47
2022-11-24T01:34:47.905Z,100513.25
2022-11-24T01:37:15.256Z,100589.31
2022-11-24T01:39:42.087Z,100594.09
2022-11-24T01:42:15.002Z,100592.06
2022-11-24T01:44:48.651Z,100606.59
2022-11-24T01:47:48.075Z,100585.91
2022-11-24T01:50:18.195Z,100516.78
2022-11-24T01:52:52.262Z,100529.41
2022-11-24T01:55:33.456Z,100607.28
2022-11-24T01:58:33.825Z,100532.03
2022-11-24T02:01:10.797Z,100586.16
2022-11-24T02:03:48.251Z,100614.16
2022-11-24T02:06:26.673Z,100605.13
2022-11-24T02:09:00.571Z,100618.38
2022-11-24T02:11:36.498Z,100608.25
2022-11-24T02:14:09.681Z,100622.97
2022-11-24T02:16:37.645Z,100593.09
2022-11-24T02:19:14.946Z,100626.28
2022-11-24T02:21:43.474Z,100645.06
2022-11-24T02:24:31.226Z,100642.53
2022-11-24T02:26:58.201Z,100648.09
2022-11-24T02:29:25.105Z,100652.56
2022-11-24T02:31:58.259Z,100617.91
2022-11-24T02:34:25.093Z,100660.97
2022-11-24T02:36:51.763Z,100621.75
2022-11-24T02:39:18.799Z,100666.25
2022-11-24T02:42:00.517Z,100673.72
2022-11-24T02:44:33.170Z,100670.81
2022-11-24T02:47:09.339Z,100682.47
2022-11-24T02:49:36.569Z,100680.88
2022-11-24T02:52:07.255Z,100663.22
2022-11-24T02:54:36.760Z,100683.28
2022-11-24T02:57:04.186Z,100672.22
2022-11-24T02:59:32.834Z,100701.53
2022-11-24T03:01:59.467Z,100679.03
2022-11-24T03:04:33.192Z,100695.03
2022-11-24T03:07:07.533Z,100709.34
2022-11-24T03:12:15.120Z,100704.75
2022-11-24T03:14:42.812Z,100668.06
2022-11-24T03:17:09.779Z,100714.75
2022-11-24T03:19:39.048Z,100696.84
2022-11-24T03:22:07.781Z,100724.38
2022-11-24T03:24:36.094Z,100640.53
2022-11-24T03:27:06.266Z,100698.41
2022-11-24T03:29:41.803Z,100731.28
2022-11-24T03:32:12.592Z,100693.69
2022-11-24T03:34:41.196Z,100723.69
2022-11-24T03:37:07.841Z,100723.69
2022-11-24T03:39:36.027Z,100721.03
2022-11-24T03:42:06.248Z,100728.75
2022-11-24T03:44:36.476Z,100741.31
2022-11-24T03:47:03.444Z,100737.19
2022-11-24T03:49:31.064Z,100693.38
2022-11-24T03:52:08.584Z,100733.75
2022-11-24T03:54:50.741Z,100678.59
2022-11-24T03:57:29.382Z,100737.47
2022-11-24T04:00:18.550Z,100719.66
2022-11-24T04:02:49.076Z,100744.91
2022-11-24T04:05:16.613Z,100735.41
2022-11-24T04:07:53.457Z,100718.59
2022-11-24T04:10:40.991Z,100723.13
2022-11-24T04:13:14.057Z,100732.88
2022-11-24T04:15:42.705Z,100752.13
2022-11-24T04:18:11.548Z,100736.47
2022-11-24T04:20:45.638Z,100732.59
2022-11-24T04:23:12.443Z,100761.38
2022-11-24T04:25:39.963Z,100749.16
2022-11-24T04:28:06.896Z,100692.16
2022-11-24T04:30:45.588Z,100727.75
2022-11-24T04:33:14.401Z,100748.94
2022-11-24T04:35:49.252Z,100667.44
2022-11-24T04:39:22.762Z,100730.22
2022-11-24T04:41:29.885Z,100685.97
2022-11-24T04:44:05.421Z,100724.44
2022-11-24T04:46:35.123Z,100755.44
2022-11-24T04:49:03.578Z,100744.84
2022-11-24T04:51:39.361Z,100757.72
2022-11-24T04:54:23.963Z,100752.56
2022-11-24T04:57:06.391Z,100762.91
2022-11-24T04:59:48.644Z,100760.84
2022-11-24T05:02:17.001Z,100752.63
2022-11-24T05:04:44.753Z,100733.41
2022-11-24T05:07:18.656Z,100771.53
2022-11-24T05:10:06.144Z,100676.06
2022-11-24T05:12:35.704Z,100789.59
2022-11-24T05:15:06.279Z,100743.25
2022-11-24T05:17:41.376Z,100767.59
2022-11-24T05:20:08.514Z,100772.72
2022-11-24T05:22:35.167Z,100823.81
2022-11-24T05:25:02.133Z,100832.28
2022-11-24T05:27:29.098Z,100796.56
2022-11-24T05:29:59.019Z,100831.94
2022-11-24T05:32:25.712Z,100815.50
2022-11-24T05:34:59.683Z,100766.66
2022-11-24T05:37:29.138Z,100831.22
2022-11-24T05:39:55.696Z,100827.69
2022-11-24T05:42:46.096Z,100793.16
2022-11-24T05:45:17.295Z,100848.41
2022-11-24T05:47:45.330Z,100850.03
2022-11-24T05:50:18.964Z,100856.84
2022-11-24T05:52:46.888Z,100864.78
2022-11-24T05:55:19.689Z,100839.09
2022-11-24T05:57:47.360Z,100861.84
2022-11-24T06:00:18.161Z,100853.94
2022-11-24T06:02:48.916Z,100855.19
2022-11-24T06:05:16.282Z,100885.19
2022-11-24T06:07:43.324Z,100864.81
2022-11-24T06:10:10.694Z,100825.59
2022-11-24T06:12:37.585Z,100864.00
2022-11-24T06:15:08.124Z,100855.31
2022-11-24T06:17:59.174Z,100885.69
2022-11-24T06:20:32.662Z,100879.72
2022-11-24T06:23:05.194Z,100902.75
2022-11-24T06:25:32.087Z,100909.94
2022-11-24T06:28:03.795Z,100917.69
2022-11-24T06:30:33.770Z,100900.31
2022-11-24T06:33:00.873Z,100908.56
2022-11-24T06:35:27.996Z,100882.59
2022-11-24T06:37:57.906Z,100913.22
2022-11-24T06:40:32.833Z,100919.56
2022-11-24T06:43:01.156Z,100908.59
2022-11-24T06:45:31.288Z,100923.25
2022-11-24T06:47:59.403Z,100904.16
2022-11-24T06:50:36.468Z,100931.41
2022-11-24T06:53:06.219Z,100936.03
2022-11-24T06:55:41.788Z,100938.59
2022-11-24T06:58:11.831Z,100914.50
2022-11-24T07:00:48.220Z,100957.81
2022-11-24T07:03:17.109Z,100956.34
2022-11-24T07:05:54.529Z,100880.53
2022-11-24T07:08:21.509Z,100957.53
2022-11-24T07:10:48.899Z,100901.66
2022-11-24T07:13:16.235Z,100988.88
2022-11-24T07:15:46.275Z,100980.44
2022-11-24T07:18:13.225Z,100976.00
2022-11-24T07:20:40.307Z,100978.63
2022-11-24T07:23:07.125Z,100968.91
2022-11-24T07:25:35.519Z,100968.06
2022-11-24T07:28:03.071Z,101003.75
2022-11-24T07:30:32.727Z,100964.59
2022-11-24T07:33:06.766Z,101008.06
2022-11-24T07:35:34.192Z,100980.84
2022-11-24T07:38:04.753Z,101020.50
2022-11-24T07:40:31.799Z,100966.44
2022-11-24T07:43:01.315Z,101030.22
2022-11-24T07:45:28.911Z,101034.34
2022-11-24T07:47:57.164Z,101045.75
2022-11-24T07:50:25.632Z,101019.94
2022-11-24T07:52:53.390Z,101050.16
2022-11-24T07:55:23.445Z,101050.38
2022-11-24T07:57:50.401Z,101036.91
2022-11-24T08:00:19.691Z,101041.34
2022-11-24T08:02:46.293Z,101039.44
2022-11-24T08:05:13.151Z,101047.06
2022-11-24T08:07:39.757Z,101056.00
2022-11-24T08:10:07.201Z,101037.13
2022-11-24T08:12:33.905Z,101040.78
2022-11-24T08:15:00.694Z,101033.25
2022-11-24T08:17:31.461Z,101042.31
2022-11-24T08:19:58.066Z,101053.31
2022-11-24T08:22:24.652Z,101031.16
2022-11-24T08:25:06.586Z,101049.38
2022-11-24T08:27:33.791Z,100808.09
2022-11-24T08:30:02.074Z,101056.03
2022-11-24T08:32:30.552Z,101066.69
2022-11-24T08:35:18.667Z,101045.28
2022-11-24T08:38:04.681Z,101023.50
2022-11-24T08:40:36.507Z,101068.81
2022-11-24T08:43:03.914Z,101072.66
2022-11-24T08:45:39.861Z,101071.72
2022-11-24T08:48:11.694Z,101062.75
2022-11-24T08:50:51.186Z,101053.59
2022-11-24T08:53:22.893Z,101064.13
2022-11-24T08:55:53.027Z,101052.97
2022-11-24T08:58:44.292Z,101050.53
2022-11-24T09:01:21.137Z,101045.84
2022-11-24T09:03:56.673Z,101046.75
2022-11-24T09:06:33.784Z,100980.03
2022-11-24T09:09:12.525Z,101068.97
2022-11-24T09:11:40.234Z,101058.31
2022-11-24T09:14:11.176Z,101053.47
2022-11-24T09:16:41.398Z,100964.97
2022-11-24T09:19:27.784Z,100950.97
2022-11-24T09:21:59.754Z,101035.41
2022-11-24T09:24:32.076Z,101045.69
2022-11-24T09:27:02.159Z,101055.00
2022-11-24T09:29:29.975Z,101047.16
2022-11-24T09:32:05.120Z,101043.44
2022-11-24T09:34:33.304Z,101058.16
2022-11-24T09:37:01.906Z,101082.75
2022-11-24T09:39:28.482Z,101065.22
2022-11-24T09:42:02.390Z,101062.69
2022-11-24T09:45:22.868Z,101085.28
2022-11-24T09:48:03.848Z,101025.38
2022-11-24T09:50:57.635Z,101087.78
2022-11-24T09:54:03.063Z,100907.34
2022-11-24T09:56:34.984Z,101091.03
2022-11-24T09:59:28.528Z,101085.69
2022-11-24T10:01:56.686Z,101074.63
2022-11-24T10:04:42.320Z,101054.03
2022-11-24T10:07:12.040Z,101077.06
2022-11-24T10:10:10.780Z,101093.59
2022-11-24T10:13:15.229Z,101091.59
2022-11-24T10:19:33.914Z,101088.53
2022-11-24T10:22:38.407Z,101074.47
2022-11-24T10:25:35.457Z,101094.69
2022-11-24T10:28:06.079Z,101084.88
2022-11-24T10:30:37.035Z,101081.75
2022-11-24T10:33:27.091Z,101083.97
2022-11-24T10:36:14.424Z,101040.56
2022-11-24T10:39:20.076Z,101102.84
2022-11-24T10:41:58.248Z,101106.22
2022-11-24T10:44:26.213Z,101101.47
2022-11-24T10:46:53.267Z,101089.97
2022-11-24T10:49:30.405Z,101037.78
2022-11-24T10:52:22.522Z,101082.66
2022-11-24T10:55:01.846Z,101025.03
2022-11-24T10:57:42.452Z,101091.66
2022-11-24T11:00:33.830Z,101089.69
2022-11-24T11:03:23.893Z,101111.28
2022-11-24T11:06:14.639Z,101093.91
2022-11-24T11:09:03.275Z,101107.38
2022-11-24T11:11:40.161Z,101043.81
2022-11-24T11:14:14.565Z,101119.28
2022-11-24T11:17:00.652Z,101095.56
2022-11-24T11:20:04.535Z,101110.88
2022-11-24T11:25:57.895Z,101056.56
2022-11-24T11:28:35.581Z,100990.81
2022-11-24T11:31:22.394Z,101096.66
2022-11-24T11:34:42.827Z,101106.22
2022-11-24T11:37:47.904Z,101092.47
2022-11-24T11:40:29.646Z,101052.06
2022-11-24T11:43:33.258Z,101101.97
2022-11-24T11:46:13.542Z,101028.19
2022-11-24T11:48:45.100Z,101093.03
2022-11-24T11:52:01.955Z,101083.22
2022-11-24T11:54:45.952Z,101100.91
2022-11-24T11:57:47.525Z,101100.91
2022-11-24T12:00:24.808Z,101098.94
2022-11-24T12:03:16.605Z,100905.13
2022-11-24T12:06:22.604Z,101053.75
2022-11-24T12:09:28.043Z,101105.28
2022-11-24T12:12:22.835Z,101103.72
2022-11-24T12:15:01.086Z,101100.06
2022-11-24T12:18:03.924Z,101108.78
2022-11-24T12:20:57.044Z,101106.81
2022-11-24T12:24:07.501Z,101109.06
2022-11-24T12:27:27.776Z,101082.66
2022-11-24T12:30:16.905Z,101068.63
2022-11-24T12:33:25.706Z,101099.94
2022-11-24T12:36:03.611Z,101101.19
2022-11-24T12:38:57.081Z,101058.97
2022-11-24T12:41:55.887Z,101089.13
2022-11-24T12:44:52.277Z,101104.19
2022-11-24T12:47:52.084Z,100996.28
2022-11-24T12:50:23.211Z,101100.91
2022-11-24T12:53:28.089Z,101112.84
2022-11-24T12:56:13.286Z,101109.72
2022-11-24T12:58:59.288Z,101109.31
2022-11-24T13:01:49.940Z,101115.09
2022-11-24T13:04:42.877Z,101085.63
2022-11-24T13:07:17.036Z,101090.53
2022-11-24T13:10:40.096Z,101102.44
2022-11-24T13:13:19.703Z,101096.16
2022-11-24T13:19:17.068Z,101011.72
2022-11-24T13:21:45.841Z,101085.34
2022-11-24T13:24:40.879Z,101083.09
2022-11-24T13:27:16.915Z,101090.78
2022-11-24T13:29:49.870Z,101095.25
2022-11-24T13:32:22.579Z,100934.34
2022-11-24T13:34:55.265Z,101081.41
2022-11-24T13:37:35.219Z,101094.03
2022-11-24T13:40:12.099Z,101091.34
2022-11-24T13:43:01.663Z,101087.47
2022-11-24T13:45:41.217Z,101087.38
2022-11-24T13:48:23.314Z,101092.22
2022-11-24T13:50:49.941Z,101026.16
2022-11-24T13:53:33.115Z,101030.78
2022-11-24T13:56:25.614Z,101056.28
2022-11-24T13:59:06.497Z,101092.50
2022-11-24T14:01:37.140Z,101092.06
2022-11-24T14:04:43.302Z,101098.13
2022-11-24T14:07:15.476Z,100955.78
2022-11-24T14:09:50.386Z,101069.50
2022-11-24T14:12:22.240Z,101093.34
2022-11-24T14:15:05.395Z,101095.88
2022-11-24T14:17:35.040Z,101116.47
2022-11-24T14:20:32.483Z,101077.75
2022-11-24T14:23:08.436Z,101099.78
2022-11-24T14:25:38.085Z,101107.78
2022-11-24T14:28:22.107Z,101107.38
2022-11-24T14:30:49.295Z,101110.03
2022-11-24T14:33:24.004Z,101104.00
2022-11-24T14:35:53.640Z,101109.91
2022-11-24T14:38:20.640Z,101063.03
2022-11-24T14:40:51.733Z,101041.16
2022-11-24T14:43:27.892Z,101083.66
2022-11-24T14:46:03.031Z,101118.28
2022-11-24T14:48:53.222Z,101111.72
2022-11-24T14:51:43.280Z,101131.03
2022-11-24T14:54:19.449Z,101136.75
2022-11-24T14:57:04.769Z,101134.63
2022-11-24T14:59:40.261Z,101001.34
2022-11-24T15:03:08.207Z,101141.47
2022-11-24T15:06:04.376Z,101090.75
2022-11-24T15:08:38.723Z,101120.38
2022-11-24T15:11:08.454Z,101141.13
2022-11-24T15:13:53.802Z,101126.63
2022-11-24T15:16:25.739Z,101139.84
2022-11-24T15:19:02.807Z,101147.00
2022-11-24T15:21:34.525Z,101118.41
2022-11-24T15:24:29.669Z,101150.91
2022-11-24T15:27:01.776Z,101160.00
2022-11-24T15:29:30.067Z,101145.59
2022-11-24T15:31:59.163Z,101153.13
2022-11-24T15:34:27.332Z,101156.03
2022-11-24T15:36:54.279Z,101111.53
2022-11-24T15:39:21.440Z,101166.22
2022-11-24T15:42:00.747Z,101168.88
2022-11-24T15:44:30.056Z,101167.91
2022-11-24T15:46:59.699Z,101176.47
2022-11-24T15:49:28.013Z,101171.03
2022-11-24T15:52:00.440Z,101160.91
2022-11-24T15:54:30.046Z,101167.59
2022-11-24T15:56:56.703Z,101180.09
2022-11-24T15:59:23.323Z,101183.22
2022-11-24T16:01:50.927Z,101139.06
2022-11-24T16:04:17.821Z,101191.53
2022-11-24T16:06:45.013Z,101152.41
2022-11-24T16:09:15.746Z,101196.47
2022-11-24T16:11:42.498Z,101196.94
2022-11-24T16:14:14.003Z,101182.59
2022-11-24T16:16:43.634Z,101196.84
2022-11-24T16:19:15.920Z,101198.31
2022-11-24T16:21:48.661Z,101136.38
2022-11-24T16:24:17.705Z,101178.59
2022-11-24T16:26:48.981Z,101198.50
2022-11-24T16:29:21.608Z,100995.34
2022-11-24T16:31:50.594Z,101209.13
2022-11-24T16:34:20.957Z,101107.19
2022-11-24T16:36:52.508Z,101208.31
2022-11-24T16:39:20.526Z,101203.97
2022-11-24T16:41:48.711Z,101183.69
2022-11-24T16:44:16.296Z,101198.63
2022-11-24T16:46:44.767Z,101118.50
2022-11-24T16:49:16.808Z,101167.25
2022-11-24T16:51:50.196Z,101193.19
2022-11-24T16:54:25.958Z,101191.00
2022-11-24T16:56:56.963Z,101183.66
2022-11-24T16:59:28.691Z,101193.91
2022-11-24T17:02:04.397Z,101187.50
2022-11-24T17:04:35.012Z,101161.22
2022-11-24T17:07:02.414Z,101123.34
2022-11-24T17:09:40.540Z,101182.72
2022-11-24T17:12:08.219Z,101174.28
2022-11-24T17:14:35.472Z,101201.91
2022-11-24T17:17:04.839Z,101186.09
2022-11-24T17:19:32.065Z,101118.66
2022-11-24T17:22:00.493Z,101225.66
2022-11-24T17:24:27.675Z,101203.44
2022-11-24T17:26:54.486Z,101217.31
2022-11-24T17:29:23.706Z,101148.19
2022-11-24T17:31:56.119Z,101141.31
2022-11-24T17:34:25.678Z,101239.84
2022-11-24T17:36:53.096Z,101237.72
2022-11-24T17:39:24.712Z,101243.75
2022-11-24T17:41:51.841Z,101226.56
2022-11-24T17:44:18.557Z,101227.66
2022-11-24T17:46:45.510Z,101217.81
2022-11-24T17:49:13.278Z,101204.41
2022-11-24T17:51:40.285Z,101085.13
2022-11-24T17:57:05.025Z,101198.59
2022-11-24T17:59:37.685Z,101251.25
2022-11-24T18:02:06.404Z,101222.28
2022-11-24T18:04:36.186Z,101269.47
2022-11-24T18:07:04.915Z,101263.31
2022-11-24T18:09:31.610Z,101256.44
2022-11-24T18:12:02.063Z,101259.94
2022-11-24T18:14:37.700Z,101188.03
2022-11-24T18:17:11.075Z,101188.22
2022-11-24T18:19:49.350Z,101123.66
2022-11-24T18:22:31.426Z,101210.41
2022-11-24T18:25:06.847Z,101097.06
2022-11-24T18:27:33.487Z,101116.38
2022-11-24T18:30:00.133Z,101263.13
2022-11-24T18:32:26.850Z,101259.75
2022-11-24T18:34:54.193Z,101257.31
2022-11-24T18:37:20.730Z,101295.09
2022-11-24T18:39:47.416Z,101267.81
2022-11-24T18:42:14.153Z,101295.38
2022-11-24T18:44:42.398Z,101281.91
2022-11-24T18:47:09.125Z,101308.69
2022-11-24T18:49:35.800Z,101276.66
2022-11-24T18:52:02.455Z,101296.13
2022-11-24T18:54:30.067Z,101309.06
2022-11-24T18:57:02.974Z,101286.50
2022-11-24T18:59:32.838Z,101263.81
2022-11-24T19:01:59.652Z,101294.97
2022-11-24T19:04:26.554Z,101310.41
2022-11-24T19:07:09.762Z,101312.78
2022-11-24T19:09:37.953Z,101285.41
2022-11-24T19:12:06.271Z,101309.63
2022-11-24T19:14:36.117Z,101233.66
2022-11-24T19:17:04.001Z,101311.72
2022-11-24T19:19:34.295Z,101322.91
2022-11-24T19:22:01.841Z,101329.41
2022-11-24T19:24:28.930Z,101312.88
2022-11-24T19:26:59.130Z,101314.34
2022-11-24T19:29:26.035Z,101298.41
2022-11-24T19:31:56.263Z,101238.59
2022-11-24T19:34:22.887Z,101301.22
2022-11-24T19:36:49.567Z,101299.34
2022-11-24T19:39:16.860Z,101324.34
2022-11-24T19:41:43.798Z,101319.25
2022-11-24T19:44:13.676Z,101265.81
2022-11-24T19:46:40.790Z,101317.72
2022-11-24T19:49:10.672Z,101277.81
2022-11-24T19:51:39.762Z,101307.47
2022-11-24T19:54:08.201Z,101321.22
2022-11-24T19:56:36.549Z,101316.13
2022-11-24T19:59:07.354Z,101246.34
2022-11-24T20:01:39.823Z,101312.75
2022-11-24T20:04:12.822Z,101322.47
2022-11-24T20:06:56.092Z,101267.06
2022-11-24T20:09:26.893Z,101319.31
2022-11-24T20:11:53.812Z,101321.63
2022-11-24T20:14:22.181Z,101314.44
2022-11-24T20:16:49.515Z,101325.41
2022-11-24T20:19:18.012Z,101333.53
2022-11-24T20:21:50.162Z,101321.69
2022-11-24T20:24:20.240Z,101324.38
2022-11-24T20:26:52.474Z,101306.13
2022-11-24T20:29:22.462Z,101313.41
2022-11-24T20:31:56.253Z,101253.66
2022-11-24T20:34:23.951Z,101220.66
2022-11-24T20:36:53.147Z,101331.66
2022-11-24T20:39:28.806Z,101319.06
2022-11-24T20:42:00.635Z,101335.13
2022-11-24T20:44:30.252Z,101336.00
2022-11-24T20:47:02.956Z,101310.91
2022-11-24T20:49:30.374Z,101325.59
2022-11-24T20:52:04.068Z,101339.03
2022-11-24T20:54:35.144Z,101283.56
2022-11-24T20:57:04.161Z,101298.00
2022-11-24T20:59:31.361Z,101316.81
2022-11-24T21:02:02.081Z,101336.13
2022-11-24T21:04:35.325Z,101286.94
2022-11-24T21:07:16.439Z,101355.13
2022-11-24T21:09:43.751Z,101352.47
2022-11-24T21:12:11.790Z,101350.84
2022-11-24T21:14:40.935Z,101353.16
2022-11-24T21:17:09.118Z,101322.09
2022-11-24T21:19:38.206Z,101320.28
2022-11-24T21:22:07.974Z,101367.00
2022-11-24T21:24:42.583Z,101366.22
2022-11-24T21:27:13.250Z,101365.34
2022-11-24T21:29:44.473Z,101330.94
2022-11-24T21:32:12.022Z,101362.94
2022-11-24T21:34:45.412Z,101277.44
2022-11-24T21:37:39.707Z,101356.09
2022-11-24T21:40:20.089Z,101261.47
2022-11-24T21:42:59.207Z,101374.84
2022-11-24T21:45:41.764Z,101366.72
2022-11-24T21:52:23.643Z,101309.50
2022-11-24T21:53:27.134Z,101388.31
2022-11-24T21:55:02.671Z,101370.84
2022-11-24T21:57:30.842Z,101386.19
2022-11-24T22:00:07.784Z,101185.13
2022-11-24T22:02:40.847Z,101325.44
2022-11-24T22:05:11.300Z,101110.44
2022-11-24T22:07:38.412Z,101331.28
2022-11-24T22:10:10.824Z,101365.66
2022-11-24T22:12:38.381Z,101370.28
2022-11-24T22:15:07.401Z,101368.78
2022-11-24T22:17:34.253Z,101391.69
2022-11-24T22:20:15.751Z,101394.59
2022-11-24T22:22:48.558Z,101362.91
2022-11-24T22:25:33.404Z,101324.38
2022-11-24T22:28:01.768Z,101414.28
2022-11-24T22:30:41.125Z,101410.28
2022-11-24T22:33:15.730Z,101331.97
2022-11-24T22:35:45.549Z,101414.00
2022-11-24T22:38:22.048Z,101395.41
2022-11-24T22:40:53.120Z,101325.94
2022-11-24T22:43:30.110Z,101389.78
2022-11-24T22:50:12.028Z,101422.63
2022-11-24T22:52:58.542Z,101383.75
2022-11-24T22:55:36.040Z,101427.78
2022-11-24T22:58:07.056Z,101432.88
2022-11-24T23:00:38.225Z,101420.50
2022-11-24T23:03:05.694Z,101441.06
2022-11-24T23:05:34.312Z,101369.41
2022-11-24T23:08:02.502Z,101455.00
2022-11-24T23:10:30.099Z,101454.69
2022-11-24T23:15:50.881Z,101445.22
2022-11-24T23:18:18.935Z,101457.75
2022-11-24T23:20:52.822Z,101436.16
2022-11-24T23:23:22.860Z,101422.53
2022-11-24T23:25:55.776Z,101443.03
2022-11-24T23:28:28.433Z,101432.66
2022-11-24T23:31:05.518Z,101427.03
2022-11-24T23:33:34.861Z,101418.16
2022-11-24T23:36:05.966Z,101413.72
2022-11-24T23:38:33.554Z,101333.69
2022-11-24T23:41:08.747Z,101406.34
2022-11-24T23:43:40.691Z,101421.66
2022-11-24T23:46:15.317Z,101394.88
2022-11-24T23:48:42.720Z,101400.59
2022-11-24T23:51:23.405Z,101421.56
2022-11-24T23:53:54.456Z,101354.09
2022-11-24T23:56:23.797Z,101414.84
2022-11-24T23:58:51.476Z,101399.41
